sensor_id;sensor_type;location;lat;lon;timestamp;pressure;altitude;pressure_sealevel;temperature;humidity
50710;BME280;37033;49.994;21.992;2023-05-07T00:00:39;99285.34;;;11.39;85.15
50710;BME280;37033;49.994;21.992;2023-05-07T00:03:23;99284.73;;;11.32;85.40
50710;BME280;37033;49.994;21.992;2023-05-07T00:05:54;99287.22;;;11.28;85.45
50710;BME280;37033;49.994;21.992;2023-05-07T00:08:24;99280.97;;;11.24;85.43
50710;BME280;37033;49.994;21.992;2023-05-07T00:10:55;99278.16;;;11.22;85.30
50710;BME280;37033;49.994;21.992;2023-05-07T00:13:26;99274.10;;;11.20;85.42
50710;BME280;37033;49.994;21.992;2023-05-07T00:16:00;99278.37;;;11.15;85.43
50710;BME280;37033;49.994;21.992;2023-05-07T00:18:30;99277.95;;;11.12;85.27
50710;BME280;37033;49.994;21.992;2023-05-07T00:21:01;99280.94;;;11.06;85.07
50710;BME280;37033;49.994;21.992;2023-05-07T00:23:32;99281.30;;;11.04;85.05
50710;BME280;37033;49.994;21.992;2023-05-07T00:26:03;99281.92;;;11.02;84.90
50710;BME280;37033;49.994;21.992;2023-05-07T00:28:34;99283.52;;;11.00;84.98
50710;BME280;37033;49.994;21.992;2023-05-07T00:31:05;99287.45;;;10.98;84.85
50710;BME280;37033;49.994;21.992;2023-05-07T00:33:39;99287.90;;;10.95;84.96
50710;BME280;37033;49.994;21.992;2023-05-07T00:36:10;99289.33;;;10.93;84.79
50710;BME280;37033;49.994;21.992;2023-05-07T00:38:41;99292.48;;;10.93;84.79
50710;BME280;37033;49.994;21.992;2023-05-07T00:41:12;99296.23;;;10.93;84.67
50710;BME280;37033;49.994;21.992;2023-05-07T00:43:42;99300.03;;;10.92;84.53
50710;BME280;37033;49.994;21.992;2023-05-07T00:46:14;99299.52;;;10.91;84.87
50710;BME280;37033;49.994;21.992;2023-05-07T00:48:45;99294.89;;;10.90;84.67
50710;BME280;37033;49.994;21.992;2023-05-07T00:51:16;99290.98;;;10.87;84.58
50710;BME280;37033;49.994;21.992;2023-05-07T00:53:47;99293.45;;;10.85;84.73
50710;BME280;37033;49.994;21.992;2023-05-07T00:56:18;99293.05;;;10.84;84.75
50710;BME280;37033;49.994;21.992;2023-05-07T00:58:50;99291.93;;;10.83;84.56
50710;BME280;37033;49.994;21.992;2023-05-07T01:01:23;99283.84;;;10.83;84.58
50710;BME280;37033;49.994;21.992;2023-05-07T01:03:54;99288.98;;;10.81;84.38
50710;BME280;37033;49.994;21.992;2023-05-07T01:06:26;99294.65;;;10.80;84.37
50710;BME280;37033;49.994;21.992;2023-05-07T01:08:59;99301.16;;;10.79;84.41
50710;BME280;37033;49.994;21.992;2023-05-07T01:11:30;99304.80;;;10.75;84.46
50710;BME280;37033;49.994;21.992;2023-05-07T01:14:01;99307.05;;;10.74;84.22
50710;BME280;37033;49.994;21.992;2023-05-07T01:16:32;99304.66;;;10.73;84.44
50710;BME280;37033;49.994;21.992;2023-05-07T01:19:03;99305.75;;;10.73;84.19
50710;BME280;37033;49.994;21.992;2023-05-07T01:21:34;99309.77;;;10.73;84.27
50710;BME280;37033;49.994;21.992;2023-05-07T01:24:08;99308.73;;;10.70;84.27
50710;BME280;37033;49.994;21.992;2023-05-07T01:26:39;99310.85;;;10.67;84.24
50710;BME280;37033;49.994;21.992;2023-05-07T01:29:10;99307.45;;;10.62;84.44
50710;BME280;37033;49.994;21.992;2023-05-07T01:31:42;99307.25;;;10.60;84.36
50710;BME280;37033;49.994;21.992;2023-05-07T01:34:14;99307.30;;;10.58;84.70
50710;BME280;37033;49.994;21.992;2023-05-07T01:36:47;99309.45;;;10.53;84.55
50710;BME280;37033;49.994;21.992;2023-05-07T01:39:18;99317.94;;;10.51;84.45
50710;BME280;37033;49.994;21.992;2023-05-07T01:41:50;99324.49;;;10.50;84.44
50710;BME280;37033;49.994;21.992;2023-05-07T01:44:21;99329.59;;;10.46;84.64
50710;BME280;37033;49.994;21.992;2023-05-07T01:46:52;99331.88;;;10.40;84.51
50710;BME280;37033;49.994;21.992;2023-05-07T01:49:24;99327.35;;;10.37;84.86
50710;BME280;37033;49.994;21.992;2023-05-07T01:51:55;99331.38;;;10.32;85.08
50710;BME280;37033;49.994;21.992;2023-05-07T01:54:28;99331.67;;;10.27;85.01
50710;BME280;37033;49.994;21.992;2023-05-07T01:56:58;99335.40;;;10.20;85.04
50710;BME280;37033;49.994;21.992;2023-05-07T01:59:29;99333.83;;;10.18;85.14
50710;BME280;37033;49.994;21.992;2023-05-07T02:02:00;99334.48;;;10.15;84.99
50710;BME280;37033;49.994;21.992;2023-05-07T02:04:31;99333.59;;;10.11;84.99
50710;BME280;37033;49.994;21.992;2023-05-07T02:07:01;99334.17;;;10.11;85.02
50710;BME280;37033;49.994;21.992;2023-05-07T02:09:32;99333.88;;;10.09;85.06
50710;BME280;37033;49.994;21.992;2023-05-07T02:12:03;99336.50;;;10.05;84.93
50710;BME280;37033;49.994;21.992;2023-05-07T02:14:34;99333.49;;;10.01;84.96
50710;BME280;37033;49.994;21.992;2023-05-07T02:17:08;99329.44;;;9.95;85.05
50710;BME280;37033;49.994;21.992;2023-05-07T02:19:39;99326.13;;;9.89;85.08
50710;BME280;37033;49.994;21.992;2023-05-07T02:22:11;99323.55;;;9.83;85.07
50710;BME280;37033;49.994;21.992;2023-05-07T02:24:42;99332.04;;;9.79;85.10
50710;BME280;37033;49.994;21.992;2023-05-07T02:27:13;99336.09;;;9.76;85.22
50710;BME280;37033;49.994;21.992;2023-05-07T02:29:44;99331.48;;;9.73;85.22
50710;BME280;37033;49.994;21.992;2023-05-07T02:32:15;99331.59;;;9.72;85.31
50710;BME280;37033;49.994;21.992;2023-05-07T02:34:46;99333.34;;;9.69;85.37
50710;BME280;37033;49.994;21.992;2023-05-07T02:37:17;99333.39;;;9.66;85.40
50710;BME280;37033;49.994;21.992;2023-05-07T02:39:47;99338.89;;;9.65;85.15
50710;BME280;37033;49.994;21.992;2023-05-07T02:42:18;99339.73;;;9.64;85.37
50710;BME280;37033;49.994;21.992;2023-05-07T02:44:49;99339.59;;;9.63;85.19
50710;BME280;37033;49.994;21.992;2023-05-07T02:47:20;99338.39;;;9.62;85.32
50710;BME280;37033;49.994;21.992;2023-05-07T02:49:50;99336.61;;;9.61;85.53
50710;BME280;37033;49.994;21.992;2023-05-07T02:52:23;99343.49;;;9.60;85.41
50710;BME280;37033;49.994;21.992;2023-05-07T02:54:54;99344.74;;;9.57;85.36
50710;BME280;37033;49.994;21.992;2023-05-07T02:57:28;99346.57;;;9.55;85.37
50710;BME280;37033;49.994;21.992;2023-05-07T03:00:06;99346.63;;;9.55;85.32
50710;BME280;37033;49.994;21.992;2023-05-07T03:02:40;99347.86;;;9.51;85.54
50710;BME280;37033;49.994;21.992;2023-05-07T03:05:11;99350.66;;;9.51;85.51
50710;BME280;37033;49.994;21.992;2023-05-07T03:07:43;99350.54;;;9.48;85.67
50710;BME280;37033;49.994;21.992;2023-05-07T03:10:17;99357.45;;;9.46;85.68
50710;BME280;37033;49.994;21.992;2023-05-07T03:12:48;99357.77;;;9.43;85.66
50710;BME280;37033;49.994;21.992;2023-05-07T03:15:19;99363.26;;;9.42;85.59
50710;BME280;37033;49.994;21.992;2023-05-07T03:17:49;99363.44;;;9.41;85.85
50710;BME280;37033;49.994;21.992;2023-05-07T03:20:20;99366.40;;;9.38;86.12
50710;BME280;37033;49.994;21.992;2023-05-07T03:22:51;99363.79;;;9.35;85.92
50710;BME280;37033;49.994;21.992;2023-05-07T03:25:22;99369.91;;;9.33;86.01
50710;BME280;37033;49.994;21.992;2023-05-07T03:27:53;99371.30;;;9.32;86.39
50710;BME280;37033;49.994;21.992;2023-05-07T03:30:24;99376.33;;;9.31;86.42
50710;BME280;37033;49.994;21.992;2023-05-07T03:32:54;99375.05;;;9.29;86.19
50710;BME280;37033;49.994;21.992;2023-05-07T03:35:28;99379.54;;;9.28;86.37
50710;BME280;37033;49.994;21.992;2023-05-07T03:37:59;99379.50;;;9.25;86.18
50710;BME280;37033;49.994;21.992;2023-05-07T03:40:29;99380.86;;;9.23;86.28
50710;BME280;37033;49.994;21.992;2023-05-07T03:43:00;99378.65;;;9.23;86.37
50710;BME280;37033;49.994;21.992;2023-05-07T03:45:31;99384.36;;;9.24;86.17
50710;BME280;37033;49.994;21.992;2023-05-07T03:48:02;99385.20;;;9.25;86.23
50710;BME280;37033;49.994;21.992;2023-05-07T03:50:33;99385.80;;;9.25;86.27
50710;BME280;37033;49.994;21.992;2023-05-07T03:53:03;99385.30;;;9.25;86.18
50710;BME280;37033;49.994;21.992;2023-05-07T03:55:34;99388.56;;;9.25;86.15
50710;BME280;37033;49.994;21.992;2023-05-07T03:58:05;99390.55;;;9.22;86.21
50710;BME280;37033;49.994;21.992;2023-05-07T04:00:36;99391.96;;;9.22;86.04
50710;BME280;37033;49.994;21.992;2023-05-07T04:03:07;99394.73;;;9.20;86.13
50710;BME280;37033;49.994;21.992;2023-05-07T04:05:38;99395.34;;;9.19;86.03
50710;BME280;37033;49.994;21.992;2023-05-07T04:08:09;99394.94;;;9.13;86.03
50710;BME280;37033;49.994;21.992;2023-05-07T04:10:40;99402.20;;;9.09;86.29
50710;BME280;37033;49.994;21.992;2023-05-07T04:13:11;99403.92;;;9.05;86.23
50710;BME280;37033;49.994;21.992;2023-05-07T04:15:44;99409.11;;;9.02;86.30
50710;BME280;37033;49.994;21.992;2023-05-07T04:18:15;99409.08;;;8.98;86.62
50710;BME280;37033;49.994;21.992;2023-05-07T04:20:46;99412.81;;;8.94;86.66
50710;BME280;37033;49.994;21.992;2023-05-07T04:23:17;99414.80;;;8.89;87.08
50710;BME280;37033;49.994;21.992;2023-05-07T04:25:48;99416.90;;;8.81;87.02
50710;BME280;37033;49.994;21.992;2023-05-07T04:28:19;99420.78;;;8.74;87.21
50710;BME280;37033;49.994;21.992;2023-05-07T04:30:52;99424.52;;;8.68;87.15
50710;BME280;37033;49.994;21.992;2023-05-07T04:33:23;99426.20;;;8.64;87.40
50710;BME280;37033;49.994;21.992;2023-05-07T04:35:54;99432.27;;;8.60;87.56
50710;BME280;37033;49.994;21.992;2023-05-07T04:38:25;99434.80;;;8.54;87.69
50710;BME280;37033;49.994;21.992;2023-05-07T04:40:55;99436.38;;;8.47;87.84
50710;BME280;37033;49.994;21.992;2023-05-07T04:43:27;99430.64;;;8.41;88.02
50710;BME280;37033;49.994;21.992;2023-05-07T04:45:57;99432.80;;;8.41;88.21
50710;BME280;37033;49.994;21.992;2023-05-07T04:48:28;99437.36;;;8.39;88.34
50710;BME280;37033;49.994;21.992;2023-05-07T04:50:59;99438.30;;;8.37;88.42
50710;BME280;37033;49.994;21.992;2023-05-07T04:53:30;99439.67;;;8.37;88.34
50710;BME280;37033;49.994;21.992;2023-05-07T04:56:00;99447.84;;;8.34;88.51
50710;BME280;37033;49.994;21.992;2023-05-07T04:58:31;99450.90;;;8.28;88.61
50710;BME280;37033;49.994;21.992;2023-05-07T05:01:05;99451.04;;;8.19;88.78
50710;BME280;37033;49.994;21.992;2023-05-07T05:03:36;99453.52;;;8.16;89.01
50710;BME280;37033;49.994;21.992;2023-05-07T05:06:07;99458.59;;;8.13;89.06
50710;BME280;37033;49.994;21.992;2023-05-07T05:08:38;99459.34;;;8.09;89.19
50710;BME280;37033;49.994;21.992;2023-05-07T05:11:09;99463.61;;;8.06;89.18
50710;BME280;37033;49.994;21.992;2023-05-07T05:13:40;99463.17;;;8.04;89.27
50710;BME280;37033;49.994;21.992;2023-05-07T05:16:10;99467.22;;;8.00;89.30
50710;BME280;37033;49.994;21.992;2023-05-07T05:18:41;99468.11;;;7.97;89.47
50710;BME280;37033;49.994;21.992;2023-05-07T05:21:12;99470.48;;;7.93;89.40
50710;BME280;37033;49.994;21.992;2023-05-07T05:23:42;99471.10;;;7.90;89.33
50710;BME280;37033;49.994;21.992;2023-05-07T05:26:13;99474.39;;;7.90;89.38
50710;BME280;37033;49.994;21.992;2023-05-07T05:28:44;99479.69;;;7.88;89.39
50710;BME280;37033;49.994;21.992;2023-05-07T05:31:15;99484.48;;;7.86;89.25
50710;BME280;37033;49.994;21.992;2023-05-07T05:33:46;99483.84;;;7.85;89.12
50710;BME280;37033;49.994;21.992;2023-05-07T05:36:17;99488.36;;;7.86;89.12
50710;BME280;37033;49.994;21.992;2023-05-07T05:38:48;99488.66;;;7.85;89.06
50710;BME280;37033;49.994;21.992;2023-05-07T05:41:19;99492.01;;;7.84;89.21
50710;BME280;37033;49.994;21.992;2023-05-07T05:43:50;99490.15;;;7.82;89.15
50710;BME280;37033;49.994;21.992;2023-05-07T05:46:20;99493.58;;;7.81;89.23
50710;BME280;37033;49.994;21.992;2023-05-07T05:48:51;99495.52;;;7.81;89.06
50710;BME280;37033;49.994;21.992;2023-05-07T05:51:23;99496.09;;;7.80;88.95
50710;BME280;37033;49.994;21.992;2023-05-07T05:53:53;99497.73;;;7.82;88.59
50710;BME280;37033;49.994;21.992;2023-05-07T05:56:24;99501.86;;;7.86;88.52
50710;BME280;37033;49.994;21.992;2023-05-07T05:58:55;99507.05;;;7.89;88.59
50710;BME280;37033;49.994;21.992;2023-05-07T06:01:26;99509.63;;;7.88;88.49
50710;BME280;37033;49.994;21.992;2023-05-07T06:03:57;99509.27;;;7.86;88.24
50710;BME280;37033;49.994;21.992;2023-05-07T06:06:28;99509.20;;;7.83;88.25
50710;BME280;37033;49.994;21.992;2023-05-07T06:09:01;99511.28;;;7.80;88.31
50710;BME280;37033;49.994;21.992;2023-05-07T06:11:32;99511.38;;;7.79;88.30
50710;BME280;37033;49.994;21.992;2023-05-07T06:14:05;99517.11;;;7.79;88.20
50710;BME280;37033;49.994;21.992;2023-05-07T06:16:39;99518.83;;;7.78;88.29
50710;BME280;37033;49.994;21.992;2023-05-07T06:19:13;99518.52;;;7.79;88.14
50710;BME280;37033;49.994;21.992;2023-05-07T06:21:43;99522.30;;;7.81;87.92
50710;BME280;37033;49.994;21.992;2023-05-07T06:24:14;99522.75;;;7.86;87.79
50710;BME280;37033;49.994;21.992;2023-05-07T06:26:45;99527.44;;;7.90;87.64
50710;BME280;37033;49.994;21.992;2023-05-07T06:29:21;99525.90;;;7.89;87.38
50710;BME280;37033;49.994;21.992;2023-05-07T06:31:55;99531.92;;;7.87;87.09
50710;BME280;37033;49.994;21.992;2023-05-07T06:34:26;99531.36;;;7.87;87.04
50710;BME280;37033;49.994;21.992;2023-05-07T06:36:56;99536.77;;;7.90;87.11
50710;BME280;37033;49.994;21.992;2023-05-07T06:39:27;99535.61;;;7.95;86.93
50710;BME280;37033;49.994;21.992;2023-05-07T06:41:58;99536.76;;;7.96;86.67
50710;BME280;37033;49.994;21.992;2023-05-07T06:44:31;99541.39;;;8.00;86.66
50710;BME280;37033;49.994;21.992;2023-05-07T06:47:02;99544.22;;;8.05;86.56
50710;BME280;37033;49.994;21.992;2023-05-07T06:49:34;99549.01;;;8.10;86.45
50710;BME280;37033;49.994;21.992;2023-05-07T06:52:05;99549.88;;;8.16;86.14
50710;BME280;37033;49.994;21.992;2023-05-07T06:54:36;99556.73;;;8.18;85.91
50710;BME280;37033;49.994;21.992;2023-05-07T06:57:11;99556.70;;;8.17;86.03
50710;BME280;37033;49.994;21.992;2023-05-07T06:59:50;99560.36;;;8.19;85.90
50710;BME280;37033;49.994;21.992;2023-05-07T07:02:20;99564.23;;;8.18;85.62
50710;BME280;37033;49.994;21.992;2023-05-07T07:04:51;99567.05;;;8.18;85.50
50710;BME280;37033;49.994;21.992;2023-05-07T07:07:27;99566.11;;;8.18;85.45
50710;BME280;37033;49.994;21.992;2023-05-07T07:09:58;99568.83;;;8.15;85.19
50710;BME280;37033;49.994;21.992;2023-05-07T07:12:28;99571.80;;;8.09;85.19
50710;BME280;37033;49.994;21.992;2023-05-07T07:14:59;99574.03;;;8.06;85.32
50710;BME280;37033;49.994;21.992;2023-05-07T07:17:30;99578.89;;;8.07;85.47
50710;BME280;37033;49.994;21.992;2023-05-07T07:20:01;99583.23;;;8.06;85.20
50710;BME280;37033;49.994;21.992;2023-05-07T07:22:32;99578.94;;;8.02;85.26
50710;BME280;37033;49.994;21.992;2023-05-07T07:25:03;99584.95;;;8.01;85.32
50710;BME280;37033;49.994;21.992;2023-05-07T07:27:36;99586.11;;;8.06;85.19
50710;BME280;37033;49.994;21.992;2023-05-07T07:30:10;99592.75;;;8.04;85.22
50710;BME280;37033;49.994;21.992;2023-05-07T07:32:41;99598.95;;;8.00;85.05
50710;BME280;37033;49.994;21.992;2023-05-07T07:35:12;99604.01;;;7.96;85.03
50710;BME280;37033;49.994;21.992;2023-05-07T07:37:46;99604.65;;;7.94;85.08
50710;BME280;37033;49.994;21.992;2023-05-07T07:40:19;99610.90;;;7.93;85.08
50710;BME280;37033;49.994;21.992;2023-05-07T07:42:50;99617.05;;;7.91;84.81
50710;BME280;37033;49.994;21.992;2023-05-07T07:45:21;99618.98;;;7.87;84.86
50710;BME280;37033;49.994;21.992;2023-05-07T07:47:52;99619.46;;;7.87;85.05
50710;BME280;37033;49.994;21.992;2023-05-07T07:50:23;99618.10;;;7.87;84.96
50710;BME280;37033;49.994;21.992;2023-05-07T07:52:54;99622.52;;;7.86;85.00
50710;BME280;37033;49.994;21.992;2023-05-07T07:55:27;99623.70;;;7.83;84.62
50710;BME280;37033;49.994;21.992;2023-05-07T07:57:58;99628.48;;;7.80;84.76
50710;BME280;37033;49.994;21.992;2023-05-07T08:00:29;99631.19;;;7.81;84.78
50710;BME280;37033;49.994;21.992;2023-05-07T08:03:00;99635.25;;;7.83;84.83
50710;BME280;37033;49.994;21.992;2023-05-07T08:05:32;99635.43;;;7.79;84.66
50710;BME280;37033;49.994;21.992;2023-05-07T08:08:05;99636.91;;;7.75;84.68
50710;BME280;37033;49.994;21.992;2023-05-07T08:10:36;99638.73;;;7.75;84.87
50710;BME280;37033;49.994;21.992;2023-05-07T08:13:09;99643.26;;;7.72;84.68
50710;BME280;37033;49.994;21.992;2023-05-07T08:15:42;99645.95;;;7.67;84.79
50710;BME280;37033;49.994;21.992;2023-05-07T08:18:13;99645.33;;;7.67;84.71
50710;BME280;37033;49.994;21.992;2023-05-07T08:20:47;99649.08;;;7.65;84.61
50710;BME280;37033;49.994;21.992;2023-05-07T08:23:18;99651.77;;;7.67;84.66
50710;BME280;37033;49.994;21.992;2023-05-07T08:25:49;99654.90;;;7.66;84.62
50710;BME280;37033;49.994;21.992;2023-05-07T08:28:23;99655.55;;;7.67;84.70
50710;BME280;37033;49.994;21.992;2023-05-07T08:30:54;99663.22;;;7.66;84.42
50710;BME280;37033;49.994;21.992;2023-05-07T08:33:29;99668.27;;;7.62;84.32
50710;BME280;37033;49.994;21.992;2023-05-07T08:36:02;99675.55;;;7.57;84.30
50710;BME280;37033;49.994;21.992;2023-05-07T08:38:39;99674.71;;;7.47;84.31
50710;BME280;37033;49.994;21.992;2023-05-07T08:41:15;99676.85;;;7.44;84.33
50710;BME280;37033;49.994;21.992;2023-05-07T08:43:48;99684.04;;;7.47;84.49
50710;BME280;37033;49.994;21.992;2023-05-07T08:46:23;99682.88;;;7.44;84.41
50710;BME280;37033;49.994;21.992;2023-05-07T08:48:55;99685.05;;;7.42;84.49
50710;BME280;37033;49.994;21.992;2023-05-07T08:51:29;99688.39;;;7.40;84.43
50710;BME280;37033;49.994;21.992;2023-05-07T08:54:04;99694.74;;;7.42;84.44
50710;BME280;37033;49.994;21.992;2023-05-07T08:56:40;99702.77;;;7.41;84.47
50710;BME280;37033;49.994;21.992;2023-05-07T08:59:11;99697.00;;;7.39;84.52
50710;BME280;37033;49.994;21.992;2023-05-07T09:01:42;99704.09;;;7.45;84.46
50710;BME280;37033;49.994;21.992;2023-05-07T09:04:14;99705.92;;;7.50;84.41
50710;BME280;37033;49.994;21.992;2023-05-07T09:06:48;99710.24;;;7.53;84.17
50710;BME280;37033;49.994;21.992;2023-05-07T09:09:25;99708.77;;;7.51;83.99
50710;BME280;37033;49.994;21.992;2023-05-07T09:11:59;99710.39;;;7.45;83.76
50710;BME280;37033;49.994;21.992;2023-05-07T09:14:31;99713.04;;;7.47;83.82
50710;BME280;37033;49.994;21.992;2023-05-07T09:17:05;99717.20;;;7.47;83.72
50710;BME280;37033;49.994;21.992;2023-05-07T09:19:39;99720.57;;;7.48;83.61
50710;BME280;37033;49.994;21.992;2023-05-07T09:22:13;99724.95;;;7.53;83.60
50710;BME280;37033;49.994;21.992;2023-05-07T09:24:50;99727.27;;;7.58;83.55
50710;BME280;37033;49.994;21.992;2023-05-07T09:27:29;99729.44;;;7.61;83.26
50710;BME280;37033;49.994;21.992;2023-05-07T09:30:00;99736.89;;;7.59;82.96
50710;BME280;37033;49.994;21.992;2023-05-07T09:32:35;99738.77;;;7.56;82.61
50710;BME280;37033;49.994;21.992;2023-05-07T09:35:15;99743.45;;;7.51;82.70
50710;BME280;37033;49.994;21.992;2023-05-07T09:37:51;99749.90;;;7.51;82.35
50710;BME280;37033;49.994;21.992;2023-05-07T09:40:26;99756.08;;;7.48;82.28
50710;BME280;37033;49.994;21.992;2023-05-07T09:43:13;99759.10;;;7.49;82.44
50710;BME280;37033;49.994;21.992;2023-05-07T09:45:44;99759.23;;;7.48;82.19
50710;BME280;37033;49.994;21.992;2023-05-07T09:48:20;99757.20;;;7.45;82.49
50710;BME280;37033;49.994;21.992;2023-05-07T09:50:54;99759.44;;;7.47;82.68
50710;BME280;37033;49.994;21.992;2023-05-07T09:53:31;99769.63;;;7.51;82.33
50710;BME280;37033;49.994;21.992;2023-05-07T09:56:11;99767.60;;;7.49;82.27
50710;BME280;37033;49.994;21.992;2023-05-07T09:58:48;99771.41;;;7.48;82.04
50710;BME280;37033;49.994;21.992;2023-05-07T10:01:25;99779.73;;;7.46;82.15
50710;BME280;37033;49.994;21.992;2023-05-07T10:03:58;99777.71;;;7.46;82.18
50710;BME280;37033;49.994;21.992;2023-05-07T10:06:29;99784.87;;;7.45;82.16
50710;BME280;37033;49.994;21.992;2023-05-07T10:09:06;99782.23;;;7.46;82.31
50710;BME280;37033;49.994;21.992;2023-05-07T10:11:40;99786.75;;;7.43;82.34
50710;BME280;37033;49.994;21.992;2023-05-07T10:14:11;99787.88;;;7.40;82.36
50710;BME280;37033;49.994;21.992;2023-05-07T10:16:45;99792.95;;;7.37;81.99
50710;BME280;37033;49.994;21.992;2023-05-07T10:19:19;99791.23;;;7.31;81.90
50710;BME280;37033;49.994;21.992;2023-05-07T10:21:55;99794.89;;;7.28;82.10
50710;BME280;37033;49.994;21.992;2023-05-07T10:24:36;99802.79;;;7.26;82.31
50710;BME280;37033;49.994;21.992;2023-05-07T10:27:12;99800.46;;;7.24;82.32
50710;BME280;37033;49.994;21.992;2023-05-07T10:29:52;99803.32;;;7.26;82.29
50710;BME280;37033;49.994;21.992;2023-05-07T10:32:44;99794.80;;;7.23;82.03
50710;BME280;37033;49.994;21.992;2023-05-07T10:35:25;99796.80;;;7.22;82.18
50710;BME280;37033;49.994;21.992;2023-05-07T10:38:02;99800.30;;;7.23;82.19
50710;BME280;37033;49.994;21.992;2023-05-07T10:40:33;99798.42;;;7.25;82.31
50710;BME280;37033;49.994;21.992;2023-05-07T10:43:11;99807.11;;;7.23;82.25
50710;BME280;37033;49.994;21.992;2023-05-07T10:45:45;99809.86;;;7.20;82.30
50710;BME280;37033;49.994;21.992;2023-05-07T10:49:09;99812.54;;;7.15;82.36
50710;BME280;37033;49.994;21.992;2023-05-07T10:51:41;99813.82;;;7.15;82.24
50710;BME280;37033;49.994;21.992;2023-05-07T10:54:26;99817.81;;;7.18;82.37
50710;BME280;37033;49.994;21.992;2023-05-07T10:56:57;99821.52;;;7.21;82.39
50710;BME280;37033;49.994;21.992;2023-05-07T10:59:54;99824.09;;;7.23;82.27
50710;BME280;37033;49.994;21.992;2023-05-07T11:02:24;99826.83;;;7.27;82.17
50710;BME280;37033;49.994;21.992;2023-05-07T11:05:28;99829.92;;;7.26;81.92
50710;BME280;37033;49.994;21.992;2023-05-07T11:08:02;99824.88;;;7.24;81.85
50710;BME280;37033;49.994;21.992;2023-05-07T11:10:51;99825.02;;;7.21;82.00
50710;BME280;37033;49.994;21.992;2023-05-07T11:13:46;99830.04;;;7.23;81.85
50710;BME280;37033;49.994;21.992;2023-05-07T11:16:21;99837.36;;;7.16;81.78
50710;BME280;37033;49.994;21.992;2023-05-07T11:18:54;99837.95;;;7.11;81.92
50710;BME280;37033;49.994;21.992;2023-05-07T11:21:41;99843.69;;;7.10;81.96
50710;BME280;37033;49.994;21.992;2023-05-07T11:24:15;99846.84;;;7.09;82.07
50710;BME280;37033;49.994;21.992;2023-05-07T11:26:48;99844.64;;;7.07;82.05
50710;BME280;37033;49.994;21.992;2023-05-07T11:29:20;99847.38;;;7.07;82.22
50710;BME280;37033;49.994;21.992;2023-05-07T11:31:53;99851.46;;;7.05;82.16
50710;BME280;37033;49.994;21.992;2023-05-07T11:34:25;99856.25;;;7.02;82.13
50710;BME280;37033;49.994;21.992;2023-05-07T11:36:56;99856.15;;;6.99;82.12
50710;BME280;37033;49.994;21.992;2023-05-07T11:39:30;99860.66;;;6.97;82.38
50710;BME280;37033;49.994;21.992;2023-05-07T11:42:02;99868.42;;;6.97;82.28
50710;BME280;37033;49.994;21.992;2023-05-07T11:44:44;99875.03;;;6.98;82.56
50710;BME280;37033;49.994;21.992;2023-05-07T11:47:20;99882.73;;;6.98;82.38
50710;BME280;37033;49.994;21.992;2023-05-07T11:49:54;99878.18;;;6.93;82.56
50710;BME280;37033;49.994;21.992;2023-05-07T11:52:31;99878.09;;;6.92;82.41
50710;BME280;37033;49.994;21.992;2023-05-07T11:55:03;99879.44;;;6.96;82.66
50710;BME280;37033;49.994;21.992;2023-05-07T11:57:34;99879.27;;;6.98;82.44
50710;BME280;37033;49.994;21.992;2023-05-07T12:00:16;99877.53;;;7.01;82.49
50710;BME280;37033;49.994;21.992;2023-05-07T12:02:50;99876.62;;;7.03;82.38
50710;BME280;37033;49.994;21.992;2023-05-07T12:05:23;99876.45;;;7.00;82.17
50710;BME280;37033;49.994;21.992;2023-05-07T12:07:58;99880.02;;;6.96;82.31
50710;BME280;37033;49.994;21.992;2023-05-07T12:10:29;99886.84;;;6.95;82.29
50710;BME280;37033;49.994;21.992;2023-05-07T12:13:15;99889.21;;;6.92;82.27
50710;BME280;37033;49.994;21.992;2023-05-07T12:15:46;99896.77;;;6.89;82.10
50710;BME280;37033;49.994;21.992;2023-05-07T12:18:20;99890.52;;;6.85;82.25
50710;BME280;37033;49.994;21.992;2023-05-07T12:20:54;99891.47;;;6.85;82.13
50710;BME280;37033;49.994;21.992;2023-05-07T12:23:25;99895.84;;;6.84;82.29
50710;BME280;37033;49.994;21.992;2023-05-07T12:26:00;99895.05;;;6.84;82.27
50710;BME280;37033;49.994;21.992;2023-05-07T12:28:38;99895.79;;;6.82;82.16
50710;BME280;37033;49.994;21.992;2023-05-07T12:31:11;99904.30;;;6.82;82.38
50710;BME280;37033;49.994;21.992;2023-05-07T12:33:50;99901.33;;;6.85;82.28
50710;BME280;37033;49.994;21.992;2023-05-07T12:36:26;99899.37;;;6.82;82.12
50710;BME280;37033;49.994;21.992;2023-05-07T12:39:12;99897.81;;;6.79;82.03
50710;BME280;37033;49.994;21.992;2023-05-07T12:41:58;99895.64;;;6.76;82.14
50710;BME280;37033;49.994;21.992;2023-05-07T12:44:37;99897.65;;;6.77;82.31
50710;BME280;37033;49.994;21.992;2023-05-07T12:47:16;99899.86;;;6.77;82.02
50710;BME280;37033;49.994;21.992;2023-05-07T12:49:50;99900.65;;;6.78;81.83
50710;BME280;37033;49.994;21.992;2023-05-07T12:52:21;99904.02;;;6.78;81.91
50710;BME280;37033;49.994;21.992;2023-05-07T12:54:52;99907.71;;;6.79;81.84
50710;BME280;37033;49.994;21.992;2023-05-07T12:57:31;99911.09;;;6.79;81.68
50710;BME280;37033;49.994;21.992;2023-05-07T13:00:16;99919.27;;;6.78;81.62
50710;BME280;37033;49.994;21.992;2023-05-07T13:02:53;99917.98;;;6.77;81.51
50710;BME280;37033;49.994;21.992;2023-05-07T13:05:27;99922.80;;;6.75;81.32
50710;BME280;37033;49.994;21.992;2023-05-07T13:08:00;99924.16;;;6.73;81.42
50710;BME280;37033;49.994;21.992;2023-05-07T13:10:31;99923.23;;;6.73;81.46
50710;BME280;37033;49.994;21.992;2023-05-07T13:13:08;99929.17;;;6.70;81.31
50710;BME280;37033;49.994;21.992;2023-05-07T13:15:39;99926.27;;;6.68;81.56
50710;BME280;37033;49.994;21.992;2023-05-07T13:18:15;99930.91;;;6.65;81.39
50710;BME280;37033;49.994;21.992;2023-05-07T13:20:46;99935.17;;;6.63;81.49
50710;BME280;37033;49.994;21.992;2023-05-07T13:23:20;99935.17;;;6.62;81.61
50710;BME280;37033;49.994;21.992;2023-05-07T13:25:51;99939.20;;;6.57;81.35
50710;BME280;37033;49.994;21.992;2023-05-07T13:28:23;99944.54;;;6.50;81.52